Time,TemperatureF,DewpointF,PressureIn,WindDirection,WindDirectionDegrees,WindSpeedMPH,WindSpeedGustMPH,Humidity,HourlyPrecipIn,Conditions,Clouds,dailyrainin,SolarRadiationWatts/m^2,SoftwareType,DateUTC
2013-05-08 00:02:00,57.0,43.0,-100.00,WSW,238,0.0,1.0,60,0.00,,,0.00,0.000000,,2013-05-08 04:02:00,
2013-05-08 00:10:00,54.0,44.0,-100.00,NNE,26,0.0,0.0,69,0.00,,,0.00,0.000000,,2013-05-08 04:10:00,
2013-05-08 00:43:00,54.0,44.0,-100.00,NNE,26,0.0,0.0,69,0.00,,,0.00,0.000000,,2013-05-08 04:43:00,
2013-05-08 00:53:00,54.0,44.0,-100.00,NNE,26,0.0,0.0,69,0.00,,,0.00,0.000000,,2013-05-08 04:53:00,
2013-05-08 01:02:00,54.0,44.0,-100.00,NNE,26,0.0,0.0,69,0.00,,,0.00,0.000000,,2013-05-08 05:02:00,
2013-05-08 01:10:00,50.0,42.0,-100.00,East,96,0.0,0.0,75,0.00,,,0.00,0.000000,,2013-05-08 05:10:00,
2013-05-08 01:32:00,50.0,42.0,-100.00,East,96,0.0,0.0,75,0.00,,,0.00,0.000000,,2013-05-08 05:32:00,
2013-05-08 01:42:00,50.0,42.0,-100.00,East,96,0.0,0.0,75,0.00,,,0.00,0.000000,,2013-05-08 05:42:00,
2013-05-08 01:52:00,50.0,42.0,-100.00,East,96,0.0,0.0,75,0.00,,,0.00,0.000000,,2013-05-08 05:52:00,
2013-05-08 02:01:00,50.0,42.0,-100.00,East,96,0.0,0.0,75,0.00,,,0.00,0.000000,,2013-05-08 06:01:00,
2013-05-08 02:10:00,48.0,43.0,-100.00,WNW,287,0.0,2.0,83,0.00,,,0.00,0.000000,,2013-05-08 06:10:00,
2013-05-08 02:42:00,48.0,43.0,-100.00,WNW,287,0.0,2.0,83,0.00,,,0.00,0.000000,,2013-05-08 06:42:00,
2013-05-08 02:52:00,48.0,43.0,-100.00,WNW,287,0.0,2.0,83,0.00,,,0.00,0.000000,,2013-05-08 06:52:00,
2013-05-08 03:02:00,48.0,43.0,-100.00,WNW,287,0.0,2.0,83,0.00,,,0.00,0.000000,,2013-05-08 07:02:00,
2013-05-08 03:10:00,46.0,42.0,-100.00,North,353,0.0,2.0,87,0.00,,,0.00,0.000000,,2013-05-08 07:10:00,
2013-05-08 03:42:00,46.0,42.0,-100.00,North,353,0.0,2.0,87,0.00,,,0.00,0.000000,,2013-05-08 07:42:00,
2013-05-08 03:52:00,46.0,42.0,-100.00,North,353,0.0,2.0,87,0.00,,,0.00,0.000000,,2013-05-08 07:52:00,
2013-05-08 04:01:00,46.0,42.0,-100.00,North,353,0.0,2.0,87,0.00,,,0.00,0.000000,,2013-05-08 08:01:00,
2013-05-08 04:10:00,44.0,41.0,-100.00,North,3,0.0,2.0,90,0.00,,,0.00,0.000000,,2013-05-08 08:10:00,
2013-05-08 04:32:00,44.0,41.0,-100.00,North,3,0.0,2.0,90,0.00,,,0.00,0.000000,,2013-05-08 08:32:00,
2013-05-08 04:43:00,44.0,41.0,-100.00,North,3,0.0,2.0,90,0.00,,,0.00,0.000000,,2013-05-08 08:43:00,
2013-05-08 04:52:00,44.0,41.0,-100.00,North,3,0.0,2.0,90,0.00,,,0.00,0.000000,,2013-05-08 08:52:00,
2013-05-08 05:02:00,44.0,41.0,-100.00,North,3,0.0,2.0,90,0.00,,,0.00,0.000000,,2013-05-08 09:02:00,
2013-05-08 05:10:00,42.0,41.0,-100.00,East,87,0.0,0.0,95,0.00,,,0.00,0.000000,,2013-05-08 09:10:00,
2013-05-08 05:42:00,42.0,41.0,-100.00,East,87,0.0,0.0,95,0.00,,,0.00,0.000000,,2013-05-08 09:42:00,
2013-05-08 05:53:00,42.0,41.0,-100.00,East,87,0.0,0.0,95,0.00,,,0.00,0.000000,,2013-05-08 09:53:00,
2013-05-08 06:02:00,42.0,41.0,-100.00,East,87,0.0,0.0,95,0.00,,,0.00,0.000000,,2013-05-08 10:02:00,
2013-05-08 06:10:00,41.0,40.0,-100.00,NNE,16,0.0,0.0,98,0.00,,,0.00,0.000000,,2013-05-08 10:10:00,
2013-05-08 06:33:00,41.0,40.0,-100.00,NNE,16,0.0,0.0,98,0.00,,,0.00,0.000000,,2013-05-08 10:33:00,
2013-05-08 06:42:00,41.0,40.0,-100.00,NNE,16,0.0,0.0,98,0.00,,,0.00,0.000000,,2013-05-08 10:42:00,
2013-05-08 06:52:00,41.0,40.0,-100.00,NNE,16,0.0,0.0,98,0.00,,,0.00,0.000000,,2013-05-08 10:52:00,
2013-05-08 07:02:00,41.0,40.0,-100.00,NNE,16,0.0,0.0,98,0.00,,,0.00,0.000000,,2013-05-08 11:02:00,
2013-05-08 07:10:00,40.0,40.0,-100.00,NNE,18,0.0,0.0,99,0.00,,,0.00,3.000000,,2013-05-08 11:10:00,
2013-05-08 07:42:00,40.0,40.0,-100.00,NNE,18,0.0,0.0,99,0.00,,,0.00,3.000000,,2013-05-08 11:42:00,
2013-05-08 07:52:00,40.0,40.0,-100.00,NNE,18,0.0,0.0,99,0.00,,,0.00,3.000000,,2013-05-08 11:52:00,
2013-05-08 08:01:00,40.0,40.0,-100.00,NNE,18,0.0,0.0,99,0.00,,,0.00,3.000000,,2013-05-08 12:01:00,
2013-05-08 09:10:00,51.0,47.0,-100.00,NE,50,0.0,1.0,87,-99.99,,,0.00,36.000000,,2013-05-08 13:10:00,
2013-05-08 09:32:00,51.0,47.0,-100.00,NE,50,0.0,1.0,87,-99.99,,,0.00,36.000000,,2013-05-08 13:32:00,
2013-05-08 09:42:00,51.0,47.0,-100.00,NE,50,0.0,1.0,87,-99.99,,,0.00,36.000000,,2013-05-08 13:42:00,
2013-05-08 09:52:00,51.0,47.0,-100.00,NE,50,0.0,1.0,87,-99.99,,,0.00,36.000000,,2013-05-08 13:52:00,
2013-05-08 10:02:00,51.0,47.0,-100.00,NE,50,0.0,1.0,87,-99.99,,,0.00,36.000000,,2013-05-08 14:02:00,
2013-05-08 10:10:00,64.0,43.0,-100.00,South,176,2.0,6.0,46,0.00,,,0.00,395.000000,,2013-05-08 14:10:00,
2013-05-08 10:42:00,64.0,43.0,-100.00,South,176,2.0,6.0,46,0.00,,,0.00,395.000000,,2013-05-08 14:42:00,
2013-05-08 10:52:00,64.0,43.0,-100.00,South,176,2.0,6.0,46,0.00,,,0.00,395.000000,,2013-05-08 14:52:00,
2013-05-08 11:02:00,64.0,43.0,-100.00,South,176,2.0,6.0,46,0.00,,,0.00,395.000000,,2013-05-08 15:02:00,
2013-05-08 11:10:00,72.0,42.0,-100.00,SSE,156,3.0,6.0,34,0.00,,,0.00,572.000000,,2013-05-08 15:10:00,
2013-05-08 11:42:00,72.0,42.0,-100.00,SSE,156,3.0,6.0,34,0.00,,,0.00,572.000000,,2013-05-08 15:42:00,
2013-05-08 11:53:00,72.0,42.0,-100.00,SSE,156,3.0,6.0,34,0.00,,,0.00,572.000000,,2013-05-08 15:53:00,
2013-05-08 12:03:00,72.0,42.0,-100.00,SSE,156,3.0,6.0,34,0.00,,,0.00,572.000000,,2013-05-08 16:03:00,
2013-05-08 12:10:00,75.0,39.0,-100.00,SE,143,3.0,7.0,27,0.00,,,-99.99,699.000000,,2013-05-08 16:10:00,
2013-05-08 12:42:00,75.0,39.0,-100.00,SE,143,3.0,7.0,27,0.00,,,-99.99,699.000000,,2013-05-08 16:42:00,
2013-05-08 12:52:00,75.0,39.0,-100.00,SE,143,3.0,7.0,27,0.00,,,-99.99,699.000000,,2013-05-08 16:52:00,
2013-05-08 13:02:00,75.0,39.0,-100.00,SE,143,3.0,7.0,27,0.00,,,-99.99,699.000000,,2013-05-08 17:02:00,
2013-05-08 13:10:00,76.0,36.0,-100.00,NNW,339,5.0,7.0,23,0.00,,,-99.99,731.000000,,2013-05-08 17:10:00,
2013-05-08 13:52:00,76.0,36.0,-100.00,NNW,339,5.0,7.0,23,0.00,,,-99.99,731.000000,,2013-05-08 17:52:00,
2013-05-08 14:02:00,76.0,36.0,-100.00,NNW,339,5.0,7.0,23,0.00,,,-99.99,731.000000,,2013-05-08 18:02:00,
2013-05-08 14:10:00,78.0,36.0,-100.00,NNW,333,5.0,10.0,22,0.00,,,0.00,724.000000,,2013-05-08 18:10:00,
2013-05-08 14:42:00,78.0,36.0,-100.00,NNW,333,5.0,10.0,22,0.00,,,0.00,724.000000,,2013-05-08 18:42:00,
2013-05-08 14:52:00,78.0,36.0,-100.00,NNW,333,5.0,10.0,22,0.00,,,0.00,724.000000,,2013-05-08 18:52:00,
2013-05-08 15:01:00,78.0,36.0,-100.00,NNW,333,5.0,10.0,22,0.00,,,0.00,724.000000,,2013-05-08 19:01:00,
2013-05-08 15:10:00,78.0,35.0,-100.00,SSW,194,5.0,11.0,21,0.00,,,-99.99,730.000000,,2013-05-08 19:10:00,
2013-05-08 15:32:00,78.0,35.0,-100.00,SSW,194,5.0,11.0,21,0.00,,,-99.99,730.000000,,2013-05-08 19:32:00,
2013-05-08 15:42:00,78.0,35.0,-100.00,SSW,194,5.0,11.0,21,0.00,,,-99.99,730.000000,,2013-05-08 19:42:00,
2013-05-08 15:52:00,78.0,35.0,-100.00,SSW,194,5.0,11.0,21,0.00,,,-99.99,730.000000,,2013-05-08 19:52:00,
2013-05-08 16:02:00,78.0,35.0,-100.00,SSW,194,5.0,11.0,21,0.00,,,-99.99,730.000000,,2013-05-08 20:02:00,
2013-05-08 16:10:00,77.0,33.0,-100.00,SSW,204,3.0,9.0,20,0.00,,,0.00,456.000000,,2013-05-08 20:10:00,
2013-05-08 16:42:00,77.0,33.0,-100.00,SSW,204,3.0,9.0,20,0.00,,,0.00,456.000000,,2013-05-08 20:42:00,
2013-05-08 16:52:00,77.0,33.0,-100.00,SSW,204,3.0,9.0,20,0.00,,,0.00,456.000000,,2013-05-08 20:52:00,
2013-05-08 17:01:00,77.0,33.0,-100.00,SSW,204,3.0,9.0,20,0.00,,,0.00,456.000000,,2013-05-08 21:01:00,
2013-05-08 17:10:00,77.0,37.0,-100.00,WSW,244,2.0,7.0,24,0.00,,,0.00,272.000000,,2013-05-08 21:10:00,
2013-05-08 17:33:00,77.0,37.0,-100.00,WSW,244,2.0,7.0,24,0.00,,,0.00,272.000000,,2013-05-08 21:33:00,
2013-05-08 17:43:00,77.0,37.0,-100.00,WSW,244,2.0,7.0,24,0.00,,,0.00,272.000000,,2013-05-08 21:43:00,
2013-05-08 17:53:00,77.0,37.0,-100.00,WSW,244,2.0,7.0,24,0.00,,,0.00,272.000000,,2013-05-08 21:53:00,
2013-05-08 18:03:00,77.0,37.0,-100.00,WSW,244,2.0,7.0,24,0.00,,,0.00,272.000000,,2013-05-08 22:03:00,
2013-05-08 18:10:00,76.0,36.0,-100.00,SW,222,3.0,8.0,23,0.00,,,0.00,223.000000,,2013-05-08 22:10:00,
2013-05-08 18:33:00,76.0,36.0,-100.00,SW,222,3.0,8.0,23,0.00,,,0.00,223.000000,,2013-05-08 22:33:00,
2013-05-08 18:42:00,76.0,36.0,-100.00,SW,222,3.0,8.0,23,0.00,,,0.00,223.000000,,2013-05-08 22:42:00,
2013-05-08 18:53:00,76.0,36.0,-100.00,SW,222,3.0,8.0,23,0.00,,,0.00,223.000000,,2013-05-08 22:53:00,
2013-05-08 19:01:00,76.0,36.0,-100.00,SW,222,3.0,8.0,23,0.00,,,0.00,223.000000,,2013-05-08 23:01:00,
2013-05-08 19:10:00,74.0,35.0,-100.00,West,271,2.0,7.0,24,0.00,,,0.00,140.000000,,2013-05-08 23:10:00,
2013-05-08 19:33:00,74.0,35.0,-100.00,West,271,2.0,7.0,24,0.00,,,0.00,140.000000,,2013-05-08 23:33:00,
2013-05-08 19:42:00,74.0,35.0,-100.00,West,271,2.0,7.0,24,0.00,,,0.00,140.000000,,2013-05-08 23:42:00,
2013-05-08 19:52:00,74.0,35.0,-100.00,West,271,2.0,7.0,24,0.00,,,0.00,140.000000,,2013-05-08 23:52:00,
2013-05-08 20:02:00,74.0,35.0,-100.00,West,271,2.0,7.0,24,0.00,,,0.00,140.000000,,2013-05-09 00:02:00,
2013-05-08 21:10:00,65.0,38.0,-100.00,North,6,6.0,12.0,37,-99.99,,,0.00,17.000000,,2013-05-09 01:10:00,
2013-05-08 21:32:00,65.0,38.0,-100.00,North,6,6.0,12.0,37,-99.99,,,0.00,17.000000,,2013-05-09 01:32:00,
2013-05-08 21:42:00,65.0,38.0,-100.00,North,6,6.0,12.0,37,-99.99,,,0.00,17.000000,,2013-05-09 01:42:00,
2013-05-08 21:52:00,65.0,38.0,-100.00,North,6,6.0,12.0,37,-99.99,,,0.00,17.000000,,2013-05-09 01:52:00,
2013-05-08 22:02:00,65.0,38.0,-100.00,North,6,6.0,12.0,37,-99.99,,,0.00,17.000000,,2013-05-09 02:02:00,
2013-05-08 22:10:00,64.0,38.0,-100.00,North,2,7.0,12.0,38,0.00,,,0.00,0.000000,,2013-05-09 02:10:00,
2013-05-08 23:01:00,64.0,38.0,-100.00,North,2,7.0,12.0,38,0.00,,,0.00,0.000000,,2013-05-09 03:01:00,
2013-05-08 23:10:00,62.0,38.0,-100.00,North,4,6.0,13.0,41,0.00,,,0.00,0.000000,,2013-05-09 03:10:00,
2013-05-08 23:43:00,62.0,38.0,-100.00,North,4,6.0,13.0,41,0.00,,,0.00,0.000000,,2013-05-09 03:43:00,
2013-05-08 23:53:00,62.0,38.0,-100.00,North,4,6.0,13.0,41,0.00,,,0.00,0.000000,,2013-05-09 03:53:00,